createdAt,value
2018-04-17T00:00:52.169Z,14.15
2018-04-17T00:03:20.429Z,14.11
2018-04-17T00:05:48.702Z,14.08
2018-04-17T00:08:17.383Z,14.09
2018-04-17T00:10:45.615Z,14.06
2018-04-17T00:13:13.821Z,14.03
2018-04-17T00:15:42.512Z,14.02
2018-04-17T00:18:10.743Z,13.98
2018-04-17T00:20:39.050Z,13.96
2018-04-17T00:23:07.565Z,13.94
2018-04-17T00:25:35.757Z,14.02
2018-04-17T00:28:04.060Z,13.95
2018-04-17T00:30:32.724Z,13.92
2018-04-17T00:33:00.922Z,13.87
2018-04-17T00:35:29.281Z,13.90
2018-04-17T00:37:57.949Z,13.84
2018-04-17T00:40:26.140Z,13.82
2018-04-17T00:42:54.343Z,13.82
2018-04-17T00:45:23.085Z,13.80
2018-04-17T00:47:51.358Z,13.94
2018-04-17T00:50:19.653Z,13.85
2018-04-17T00:52:48.203Z,13.77
2018-04-17T00:55:16.403Z,13.72
2018-04-17T00:57:44.712Z,13.74
2018-04-17T01:00:13.607Z,13.71
2018-04-17T01:02:41.835Z,13.68
2018-04-17T01:05:10.038Z,13.67
2018-04-17T01:07:38.576Z,13.66
2018-04-17T01:10:06.869Z,13.66
2018-04-17T01:12:35.067Z,13.65
2018-04-17T01:15:03.610Z,13.64
2018-04-17T01:17:32.201Z,13.62
2018-04-17T01:20:00.413Z,13.58
2018-04-17T01:22:29.209Z,13.56
2018-04-17T01:24:57.454Z,13.52
2018-04-17T01:27:25.675Z,13.48
2018-04-17T01:29:54.402Z,13.46
2018-04-17T01:32:22.608Z,13.42
2018-04-17T01:34:50.803Z,13.41
2018-04-17T01:37:19.502Z,13.43
2018-04-17T01:39:47.717Z,13.40
2018-04-17T01:42:15.928Z,13.37
2018-04-17T01:44:44.692Z,13.34
2018-04-17T01:47:12.912Z,13.30
2018-04-17T01:49:41.122Z,13.27
2018-04-17T01:52:09.717Z,13.26
2018-04-17T01:54:38.070Z,13.24
2018-04-17T01:57:06.267Z,13.22
2018-04-17T01:59:34.908Z,13.19
2018-04-17T02:02:03.144Z,13.20
2018-04-17T02:04:31.338Z,13.16
2018-04-17T02:07:00.080Z,13.16
2018-04-17T02:09:28.300Z,13.15
2018-04-17T02:11:56.516Z,13.11
2018-04-17T02:14:25.315Z,13.08
2018-04-17T02:16:53.544Z,13.05
2018-04-17T02:19:21.872Z,13.01
2018-04-17T02:21:50.772Z,12.94
2018-04-17T02:24:19.442Z,12.90
2018-04-17T02:26:47.681Z,12.89
2018-04-17T02:29:15.903Z,12.86
2018-04-17T02:31:44.606Z,12.83
2018-04-17T02:34:12.807Z,12.79
2018-04-17T02:36:41.019Z,12.79
2018-04-17T02:39:09.811Z,12.77
2018-04-17T02:41:38.030Z,12.68
2018-04-17T02:44:06.303Z,12.62
2018-04-17T02:46:34.755Z,12.54
2018-04-17T02:49:02.973Z,12.50
2018-04-17T02:51:31.305Z,12.40
2018-04-17T02:53:59.971Z,12.31
2018-04-17T02:56:28.167Z,12.26
2018-04-17T02:58:56.449Z,12.15
2018-04-17T03:01:25.261Z,12.09
2018-04-17T03:03:53.604Z,12.03
2018-04-17T03:06:22.500Z,11.95
2018-04-17T03:08:51.005Z,11.89
2018-04-17T03:11:19.231Z,11.89
2018-04-17T03:13:47.480Z,11.87
2018-04-17T03:16:15.980Z,11.83
2018-04-17T03:18:44.230Z,11.83
2018-04-17T03:21:12.527Z,11.81
2018-04-17T03:23:41.104Z,11.79
2018-04-17T03:26:09.410Z,11.75
2018-04-17T03:28:37.635Z,11.75
2018-04-17T03:31:06.720Z,11.67
2018-04-17T03:33:34.956Z,11.65
2018-04-17T03:36:03.162Z,11.67
2018-04-17T03:38:31.676Z,11.67
2018-04-17T03:43:34.233Z,11.57
2018-04-17T03:46:02.839Z,11.50
2018-04-17T03:48:31.382Z,11.49
2018-04-17T03:50:59.591Z,11.47
2018-04-17T03:53:27.873Z,11.42
2018-04-17T03:55:56.772Z,11.38
2018-04-17T03:58:25.285Z,11.32
2018-04-17T04:00:53.498Z,11.30
2018-04-17T04:03:22.104Z,11.29
2018-04-17T04:05:50.352Z,11.30
2018-04-17T04:08:18.581Z,11.21
2018-04-17T04:11:12.925Z,11.18
2018-04-17T04:13:47.631Z,11.21
2018-04-17T04:16:28.104Z,11.17
2018-04-17T04:19:08.262Z,11.18
2018-04-17T04:21:48.311Z,11.20
2018-04-17T04:24:28.385Z,11.17
2018-04-17T04:26:57.180Z,11.17
2018-04-17T04:29:26.634Z,11.17
2018-04-17T04:31:54.852Z,11.12
2018-04-17T04:34:23.703Z,11.14
2018-04-17T04:36:52.152Z,11.10
2018-04-17T04:41:54.889Z,11.05
2018-04-17T04:44:23.102Z,11.09
2018-04-17T04:46:51.694Z,11.10
2018-04-17T04:49:19.902Z,11.07
2018-04-17T04:51:48.631Z,11.04
2018-04-17T04:54:17.415Z,11.04
2018-04-17T04:56:45.620Z,10.99
2018-04-17T04:59:13.863Z,11.01
2018-04-17T05:01:42.521Z,11.02
2018-04-17T05:04:11.816Z,11.06
2018-04-17T05:06:40.039Z,11.04
2018-04-17T05:09:08.832Z,11.09
2018-04-17T05:11:37.133Z,11.08
2018-04-17T05:14:05.328Z,11.07
2018-04-17T05:16:33.843Z,11.05
2018-04-17T05:19:02.162Z,11.04
2018-04-17T05:21:30.448Z,11.02
2018-04-17T05:23:59.292Z,11.02
2018-04-17T05:26:28.052Z,11.00
2018-04-17T05:28:56.245Z,10.98
2018-04-17T05:31:26.256Z,11.02
2018-04-17T05:33:54.457Z,11.02
2018-04-17T05:36:23.173Z,11.05
2018-04-17T05:38:51.401Z,11.07
2018-04-17T05:41:19.623Z,11.13
2018-04-17T05:43:48.413Z,11.17
2018-04-17T05:46:16.607Z,11.22
2018-04-17T05:48:44.819Z,11.26
2018-04-17T05:51:13.547Z,11.34
2018-04-17T05:53:41.820Z,11.41
2018-04-17T05:56:11.518Z,11.41
2018-04-17T05:58:41.860Z,11.39
2018-04-17T06:01:20.282Z,11.46
2018-04-17T06:13:37.982Z,11.54
2018-04-17T06:16:07.599Z,11.60
2018-04-17T06:18:39.405Z,11.67
2018-04-17T06:21:07.711Z,11.70
2018-04-17T06:23:38.684Z,11.79
2018-04-17T06:26:07.525Z,11.85
2018-04-17T06:28:39.681Z,11.92
2018-04-17T06:31:09.237Z,11.98
2018-04-17T06:33:38.518Z,12.05
2018-04-17T06:36:06.728Z,12.10
2018-04-17T06:38:34.935Z,12.19
2018-04-17T06:41:03.644Z,12.30
2018-04-17T06:43:31.849Z,12.38
2018-04-17T06:46:00.534Z,12.45
2018-04-17T06:48:29.823Z,12.53
2018-04-17T06:50:58.042Z,12.64
2018-04-17T06:53:26.312Z,12.72
2018-04-17T06:55:54.916Z,12.80
2018-04-17T06:58:23.113Z,12.90
2018-04-17T07:00:51.449Z,13.01
2018-04-17T07:03:19.998Z,13.09
2018-04-17T07:05:48.261Z,13.18
2018-04-17T07:08:16.479Z,13.26
2018-04-17T07:10:45.111Z,13.39
2018-04-17T07:13:13.325Z,13.48
2018-04-17T07:15:41.613Z,13.62
2018-04-17T07:18:10.139Z,13.66
2018-04-17T07:20:38.424Z,13.71
2018-04-17T07:23:06.629Z,13.79
2018-04-17T07:25:35.273Z,13.88
2018-04-17T07:28:03.508Z,13.95
2018-04-17T07:30:31.817Z,14.00
2018-04-17T07:33:00.340Z,14.07
2018-04-17T07:35:28.547Z,14.17
2018-04-17T07:37:56.864Z,14.27
2018-04-17T07:40:25.351Z,14.37
2018-04-17T07:42:53.599Z,14.44
2018-04-17T07:45:21.778Z,14.49
2018-04-17T07:48:01.745Z,14.53
2018-04-17T07:50:30.434Z,14.57
2018-04-17T07:52:58.652Z,14.60
2018-04-17T07:55:26.974Z,14.70
2018-04-17T07:57:55.540Z,14.72
2018-04-17T08:00:23.754Z,14.80
2018-04-17T08:02:52.000Z,14.82
2018-04-17T08:05:20.579Z,14.86
2018-04-17T08:07:48.814Z,14.89
2018-04-17T08:10:17.114Z,14.98
2018-04-17T08:12:45.645Z,15.11
2018-04-17T08:15:13.855Z,15.23
2018-04-17T08:17:42.703Z,15.29
2018-04-17T08:20:11.696Z,15.40
2018-04-17T08:22:40.282Z,15.52
2018-04-17T08:25:08.517Z,15.59
2018-04-17T08:27:36.734Z,15.73
2018-04-17T08:30:05.410Z,15.87
2018-04-17T08:32:33.607Z,15.93
2018-04-17T08:35:01.809Z,15.97
2018-04-17T08:37:30.509Z,16.07
2018-04-17T08:39:58.703Z,16.26
2018-04-17T08:42:26.926Z,16.33
2018-04-17T08:44:55.568Z,16.49
2018-04-17T08:47:23.785Z,16.53
2018-04-17T08:49:52.024Z,16.57
2018-04-17T08:52:20.791Z,16.58
2018-04-17T08:54:49.003Z,16.63
2018-04-17T08:57:17.208Z,16.68
2018-04-17T08:59:45.945Z,16.78
2018-04-17T09:02:14.144Z,16.89
2018-04-17T09:04:42.363Z,17.01
2018-04-17T09:07:10.985Z,17.17
2018-04-17T09:09:39.190Z,17.27
2018-04-17T09:12:07.398Z,17.35
2018-04-17T09:14:36.117Z,17.39
2018-04-17T09:17:04.575Z,17.50
2018-04-17T09:19:33.739Z,17.69
2018-04-17T09:22:02.276Z,17.87
2018-04-17T09:24:30.499Z,18.05
2018-04-17T09:26:58.689Z,18.11
2018-04-17T09:29:27.227Z,18.13
2018-04-17T09:31:55.451Z,18.16
2018-04-17T09:34:23.661Z,18.20
2018-04-17T09:36:51.988Z,18.25
2018-04-17T09:39:20.205Z,18.36
2018-04-17T09:41:48.549Z,18.49
2018-04-17T09:44:17.108Z,18.55
2018-04-17T09:46:46.666Z,18.60
2018-04-17T09:49:16.599Z,18.67
2018-04-17T09:51:44.803Z,18.76
2018-04-17T09:54:13.590Z,18.79
2018-04-17T09:56:42.194Z,18.81
2018-04-17T09:59:10.516Z,18.88
2018-04-17T10:01:38.732Z,18.97
2018-04-17T10:04:07.352Z,19.10
2018-04-17T10:06:35.549Z,19.11
2018-04-17T10:09:03.905Z,19.14
2018-04-17T10:11:32.454Z,19.12
2018-04-17T10:14:00.695Z,19.09
2018-04-17T10:16:28.931Z,19.09
2018-04-17T10:18:57.504Z,19.07
2018-04-17T10:21:25.800Z,19.14
2018-04-17T10:23:54.078Z,19.17
2018-04-17T10:26:22.634Z,19.21
2018-04-17T10:28:50.857Z,19.29
2018-04-17T10:31:19.176Z,19.38
2018-04-17T10:33:47.803Z,19.49
2018-04-17T10:36:16.026Z,19.55
2018-04-17T10:38:44.304Z,19.59
2018-04-17T10:41:12.944Z,19.51
2018-04-17T10:43:41.161Z,19.53
2018-04-17T10:46:09.552Z,19.62
2018-04-17T10:48:38.063Z,19.70
2018-04-17T10:51:06.277Z,19.75
2018-04-17T10:53:34.547Z,19.88
2018-04-17T10:56:03.115Z,19.85
2018-04-17T10:58:32.565Z,19.88
2018-04-17T11:01:00.776Z,19.84
2018-04-17T11:03:28.975Z,19.99
2018-04-17T11:05:57.639Z,20.16
2018-04-17T11:08:25.846Z,20.23
2018-04-17T11:10:54.294Z,20.32
2018-04-17T11:13:22.966Z,20.49
2018-04-17T11:15:51.151Z,20.57
2018-04-17T11:18:19.416Z,20.64
2018-04-17T11:20:47.814Z,20.67
2018-04-17T11:23:16.045Z,20.69
2018-04-17T11:25:44.203Z,20.65
2018-04-17T11:28:12.505Z,20.71
2018-04-17T11:30:40.745Z,20.82
2018-04-17T11:33:10.699Z,20.93
2018-04-17T11:35:39.435Z,21.02
2018-04-17T11:38:08.080Z,21.17
2018-04-17T11:40:36.307Z,21.17
2018-04-17T11:43:04.566Z,21.33
2018-04-17T11:45:33.339Z,21.45
2018-04-17T11:48:01.520Z,21.51
2018-04-17T11:50:29.763Z,21.53
2018-04-17T11:52:58.342Z,21.61
2018-04-17T11:55:26.559Z,21.68
2018-04-17T11:57:54.815Z,21.74
2018-04-17T12:00:23.456Z,21.82
2018-04-17T12:02:51.665Z,22.03
2018-04-17T12:05:19.878Z,22.46
2018-04-17T12:07:48.624Z,22.99
2018-04-17T12:10:16.842Z,23.45
2018-04-17T12:12:45.073Z,23.71
2018-04-17T12:15:13.778Z,24.09
2018-04-17T12:17:41.983Z,24.66
2018-04-17T12:20:10.192Z,24.85
2018-04-17T12:22:38.822Z,25.07
2018-04-17T12:25:07.033Z,24.54
2018-04-17T12:27:36.374Z,24.59
2018-04-17T12:30:04.990Z,24.72
2018-04-17T12:32:33.229Z,24.78
2018-04-17T12:35:01.447Z,24.92
2018-04-17T12:37:30.093Z,24.88
2018-04-17T12:39:58.372Z,24.80
2018-04-17T12:42:26.944Z,25.01
2018-04-17T12:44:55.538Z,25.35
2018-04-17T12:47:24.155Z,25.46
2018-04-17T12:49:52.356Z,25.14
2018-04-17T12:52:20.676Z,25.24
2018-04-17T12:54:49.335Z,25.36
2018-04-17T12:57:17.539Z,25.81
2018-04-17T12:59:45.750Z,26.16
2018-04-17T13:02:14.493Z,26.20
2018-04-17T13:04:42.748Z,26.15
2018-04-17T13:07:11.180Z,26.28
2018-04-17T13:09:39.643Z,26.12
2018-04-17T13:12:07.853Z,26.38
2018-04-17T13:14:36.103Z,26.58
2018-04-17T13:17:05.292Z,26.58
2018-04-17T13:19:33.537Z,26.70
2018-04-17T13:22:01.916Z,26.63
2018-04-17T13:24:30.347Z,26.84
2018-04-17T13:26:58.608Z,26.93
2018-04-17T13:29:26.896Z,26.94
2018-04-17T13:31:55.518Z,26.71
2018-04-17T13:34:24.979Z,26.98
2018-04-17T13:36:53.170Z,27.65
2018-04-17T13:39:26.475Z,27.85
2018-04-17T13:41:55.112Z,27.93
2018-04-17T13:44:24.011Z,27.62
2018-04-17T13:46:52.269Z,27.48
2018-04-17T13:49:20.830Z,27.67
2018-04-17T13:51:49.056Z,27.81
2018-04-17T13:54:17.293Z,27.98
2018-04-17T13:56:45.972Z,28.56
2018-04-17T13:59:14.199Z,28.32
2018-04-17T14:01:42.435Z,27.88
2018-04-17T14:04:10.991Z,27.57
2018-04-17T14:06:39.205Z,28.04
2018-04-17T14:09:07.642Z,28.75
2018-04-17T14:11:36.163Z,28.25
2018-04-17T14:14:04.392Z,28.13
2018-04-17T14:16:32.656Z,28.18
2018-04-17T14:19:01.280Z,27.59
2018-04-17T14:21:29.514Z,27.53
2018-04-17T14:23:57.757Z,27.57
2018-04-17T14:26:26.271Z,27.66
2018-04-17T14:28:54.486Z,28.35
2018-04-17T14:31:22.951Z,28.56
2018-04-17T14:33:51.426Z,28.62
2018-04-17T14:36:19.651Z,28.64
2018-04-17T14:38:48.090Z,28.56
2018-04-17T14:41:16.558Z,28.63
2018-04-17T14:43:44.792Z,28.58
2018-04-17T14:46:13.115Z,28.07
2018-04-17T14:48:41.592Z,27.92
2018-04-17T14:51:09.787Z,27.70
2018-04-17T14:53:38.142Z,27.89
2018-04-17T14:56:06.740Z,27.95
2018-04-17T14:58:34.960Z,28.05
2018-04-17T15:01:03.326Z,27.93
2018-04-17T15:03:31.889Z,27.55
2018-04-17T15:06:00.104Z,27.34
2018-04-17T15:08:28.378Z,26.92
2018-04-17T15:10:57.125Z,26.44
2018-04-17T15:13:25.340Z,26.44
2018-04-17T15:15:53.649Z,26.55
2018-04-17T15:18:22.218Z,26.42
2018-04-17T15:20:50.448Z,26.22
2018-04-17T15:23:18.791Z,26.08
2018-04-17T15:25:47.321Z,25.58
2018-04-17T15:28:15.538Z,25.36
2018-04-17T15:30:43.953Z,25.19
2018-04-17T15:33:12.860Z,24.90
2018-04-17T15:35:41.568Z,24.75
2018-04-17T15:38:09.773Z,24.62
2018-04-17T15:40:38.559Z,24.51
2018-04-17T15:43:07.532Z,24.49
2018-04-17T15:45:35.783Z,24.23
2018-04-17T15:48:04.639Z,24.06
2018-04-17T15:50:33.817Z,23.92
2018-04-17T15:53:03.141Z,23.96
2018-04-17T15:55:31.377Z,23.93
2018-04-17T15:57:59.575Z,24.00
2018-04-17T16:00:28.463Z,24.01
2018-04-17T16:02:57.482Z,24.06
2018-04-17T16:05:26.400Z,23.97
2018-04-17T16:07:54.569Z,24.01
2018-04-17T16:10:23.507Z,23.82
2018-04-17T16:12:52.500Z,23.78
2018-04-17T16:15:20.677Z,23.75
2018-04-17T16:17:49.499Z,23.68
2018-04-17T16:20:18.461Z,23.67
2018-04-17T16:22:47.610Z,23.63
2018-04-17T16:25:15.820Z,23.60
2018-04-17T16:27:44.619Z,23.59
2018-04-17T16:30:13.883Z,23.60
2018-04-17T16:32:42.605Z,23.65
2018-04-17T16:35:10.776Z,23.72
2018-04-17T16:37:39.005Z,23.72
2018-04-17T16:40:07.604Z,23.82
2018-04-17T16:42:36.702Z,23.93
2018-04-17T16:45:04.908Z,23.96
2018-04-17T16:47:33.611Z,24.05
2018-04-17T16:50:02.076Z,24.09
2018-04-17T16:52:30.309Z,24.11
2018-04-17T16:54:59.077Z,24.12
2018-04-17T16:57:27.774Z,23.99
2018-04-17T16:59:55.993Z,24.00
2018-04-17T17:02:24.790Z,23.98
2018-04-17T17:04:53.488Z,23.92
2018-04-17T17:07:21.722Z,23.88
2018-04-17T17:09:50.000Z,23.85
2018-04-17T17:12:18.602Z,23.81
2018-04-17T17:14:46.805Z,23.84
2018-04-17T17:17:15.233Z,23.69
2018-04-17T17:19:43.847Z,23.62
2018-04-17T17:22:12.045Z,23.60
2018-04-17T17:24:40.384Z,23.50
2018-04-17T17:27:09.003Z,23.48
2018-04-17T17:29:38.411Z,23.43
2018-04-17T17:32:06.619Z,23.43
2018-04-17T17:34:35.505Z,23.39
2018-04-17T17:37:04.972Z,23.34
2018-04-17T17:39:33.555Z,23.31
2018-04-17T17:42:01.772Z,23.28
2018-04-17T17:44:30.053Z,23.23
2018-04-17T17:46:58.796Z,23.14
2018-04-17T17:49:26.990Z,23.09
2018-04-17T17:51:55.251Z,23.05
2018-04-17T17:54:23.938Z,23.08
2018-04-17T17:56:52.184Z,23.00
2018-04-17T17:59:20.398Z,22.95
2018-04-17T18:01:49.197Z,22.84
2018-04-17T18:04:17.406Z,22.75
2018-04-17T18:06:45.645Z,22.74
2018-04-17T18:09:14.238Z,22.62
2018-04-17T18:11:42.498Z,22.53
2018-04-17T18:14:10.756Z,22.49
2018-04-17T18:16:39.427Z,22.42
2018-04-17T18:19:07.866Z,22.37
2018-04-17T18:21:36.057Z,22.35
2018-04-17T18:24:04.668Z,22.27
2018-04-17T18:26:35.381Z,22.18
2018-04-17T18:29:03.827Z,22.11
2018-04-17T18:31:32.452Z,22.03
2018-04-17T18:34:01.433Z,22.03
2018-04-17T18:36:29.652Z,21.99
2018-04-17T18:38:57.918Z,21.88
2018-04-17T18:41:27.593Z,21.83
2018-04-17T18:43:55.846Z,21.86
2018-04-17T18:46:24.065Z,21.81
2018-04-17T18:48:52.729Z,21.78
2018-04-17T18:51:20.988Z,21.75
2018-04-17T18:53:49.535Z,21.74
2018-04-17T18:56:19.088Z,21.70
2018-04-17T18:58:47.890Z,21.61
2018-04-17T19:01:16.125Z,21.53
2018-04-17T19:03:44.333Z,21.47
2018-04-17T19:06:13.217Z,21.41
2018-04-17T19:08:42.143Z,21.41
2018-04-17T19:11:10.621Z,21.52
2018-04-17T19:13:39.318Z,21.45
2018-04-17T19:16:07.978Z,21.42
2018-04-17T19:18:37.294Z,21.32
2018-04-17T19:21:05.501Z,21.28
2018-04-17T19:23:33.772Z,21.20
2018-04-17T19:26:02.538Z,21.14
2018-04-17T19:28:30.779Z,21.08
2018-04-17T19:30:59.547Z,21.01
2018-04-17T19:33:28.173Z,20.95
2018-04-17T19:35:57.043Z,20.95
2018-04-17T19:38:25.255Z,20.88
2018-04-17T19:40:54.515Z,20.82
2018-04-17T19:43:23.390Z,20.79
2018-04-17T19:45:51.585Z,20.84
2018-04-17T19:48:19.954Z,20.82
2018-04-17T19:50:48.542Z,20.78
2018-04-17T19:53:16.881Z,20.79
2018-04-17T19:55:45.121Z,20.84
2018-04-17T19:58:15.481Z,20.81
2018-04-17T20:00:44.420Z,20.85
2018-04-17T20:03:13.730Z,20.84
2018-04-17T20:05:41.967Z,20.84
2018-04-17T20:08:11.076Z,20.75
2018-04-17T20:10:39.808Z,20.75
2018-04-17T20:13:09.113Z,20.70
2018-04-17T20:15:37.362Z,20.68
2018-04-17T20:18:05.613Z,20.60
2018-04-17T20:20:34.287Z,20.53
2018-04-17T20:23:02.559Z,20.49
2018-04-17T20:25:30.832Z,20.40
2018-04-17T20:27:59.367Z,20.35
2018-04-17T20:30:27.608Z,20.27
2018-04-17T20:32:55.923Z,20.15
2018-04-17T20:35:24.502Z,20.05
2018-04-17T20:37:52.727Z,19.95
2018-04-17T20:40:21.007Z,19.90
2018-04-17T20:42:49.753Z,19.85
2018-04-17T20:45:17.987Z,19.77
2018-04-17T20:47:46.185Z,19.69
2018-04-17T20:50:14.735Z,19.65
2018-04-17T20:52:43.816Z,19.58
2018-04-17T20:55:11.999Z,19.53
2018-04-17T20:57:40.625Z,19.47
2018-04-17T21:00:09.341Z,19.41
2018-04-17T21:02:37.547Z,19.36
2018-04-17T21:05:05.753Z,19.32
2018-04-17T21:07:34.530Z,19.29
2018-04-17T21:10:02.750Z,19.25
2018-04-17T21:12:30.985Z,19.20
2018-04-17T21:14:59.680Z,19.19
2018-04-17T21:17:27.909Z,19.16
2018-04-17T21:19:56.179Z,19.13
2018-04-17T21:22:25.010Z,19.09
2018-04-17T21:24:53.213Z,19.07
2018-04-17T21:27:21.426Z,19.04
2018-04-17T21:29:50.124Z,19.01
2018-04-17T21:32:18.316Z,19.00
2018-04-17T21:34:47.415Z,18.96
2018-04-17T21:37:15.834Z,18.92
2018-04-17T21:39:44.075Z,18.86
2018-04-17T21:42:12.442Z,18.83
2018-04-17T21:44:40.992Z,18.79
2018-04-17T21:47:09.325Z,18.75
2018-04-17T21:49:37.635Z,18.73
2018-04-17T21:52:06.212Z,18.72
2018-04-17T21:54:34.447Z,18.77
2018-04-17T21:57:02.724Z,18.78
2018-04-17T21:59:31.341Z,18.78
2018-04-17T22:01:59.563Z,18.70
2018-04-17T22:04:28.149Z,18.71
2018-04-17T22:06:56.567Z,18.66
2018-04-17T22:09:24.779Z,18.62
2018-04-17T22:11:53.099Z,18.57
2018-04-17T22:14:21.737Z,18.54
2018-04-17T22:16:49.986Z,18.49
2018-04-17T22:19:18.401Z,18.44
2018-04-17T22:21:46.928Z,18.40
2018-04-17T22:24:15.144Z,18.31
2018-04-17T22:26:43.538Z,18.22
2018-04-17T22:29:12.562Z,18.18
2018-04-17T22:31:41.784Z,18.15
2018-04-17T22:34:09.996Z,18.12
2018-04-17T22:36:38.195Z,18.05
2018-04-17T22:39:06.884Z,17.97
2018-04-17T22:41:35.071Z,17.97
2018-04-17T22:44:03.288Z,17.90
2018-04-17T22:46:32.646Z,17.85
2018-04-17T22:49:00.842Z,17.85
2018-04-17T22:51:29.455Z,17.80
2018-04-17T22:53:58.102Z,17.74
2018-04-17T22:56:27.154Z,17.63
2018-04-17T22:58:55.365Z,17.57
2018-04-17T23:01:24.357Z,17.57
2018-04-17T23:03:52.941Z,17.48
2018-04-17T23:06:22.475Z,17.41
2018-04-17T23:08:50.643Z,17.44
2018-04-17T23:11:18.898Z,17.39
2018-04-17T23:13:47.699Z,17.30
2018-04-17T23:16:15.915Z,17.26
2018-04-17T23:18:44.133Z,17.21
2018-04-17T23:21:12.897Z,17.17
2018-04-17T23:23:42.013Z,17.16
2018-04-17T23:26:10.229Z,17.11
2018-04-17T23:28:38.766Z,17.00
2018-04-17T23:31:07.017Z,16.93
2018-04-17T23:33:35.292Z,16.86
2018-04-17T23:36:03.863Z,16.81
2018-04-17T23:38:32.094Z,16.77
2018-04-17T23:41:00.330Z,16.75
2018-04-17T23:43:29.855Z,16.71
2018-04-17T23:45:58.538Z,16.68
2018-04-17T23:48:26.749Z,16.63
2018-04-17T23:50:54.945Z,16.58
2018-04-17T23:53:23.666Z,16.57
2018-04-17T23:55:51.871Z,16.48
2018-04-17T23:58:20.534Z,16.45
